createdAt,value
2022-08-01T06:43:22.900Z,99.90
2022-08-01T06:45:50.057Z,99.90
2022-08-01T06:48:17.360Z,99.90
2022-08-01T06:50:44.914Z,99.90
2022-08-01T06:53:12.211Z,99.90
2022-08-01T06:55:39.406Z,99.90
2022-08-01T06:58:06.702Z,99.90
2022-08-01T07:00:33.982Z,99.90
2022-08-01T07:03:01.275Z,99.90
2022-08-01T07:05:28.918Z,99.90
2022-08-01T07:07:56.100Z,99.90
2022-08-01T07:10:23.322Z,99.90
2022-08-01T07:12:50.570Z,99.90
2022-08-01T07:15:17.769Z,99.90
2022-08-01T07:17:44.990Z,99.90
2022-08-01T07:20:16.095Z,99.90
2022-08-01T07:22:43.930Z,99.90
2022-08-01T07:25:15.034Z,99.90
2022-08-01T07:27:44.374Z,99.90
2022-08-01T07:30:11.930Z,99.90
2022-08-01T07:32:39.129Z,99.90
2022-08-01T07:35:06.908Z,99.90
2022-08-01T07:37:48.218Z,99.90
2022-08-01T07:40:18.530Z,99.90
2022-08-01T07:42:46.371Z,99.90
2022-08-01T07:45:14.680Z,99.90
2022-08-01T07:47:42.080Z,99.90
2022-08-01T07:50:09.564Z,99.90
2022-08-01T07:52:36.910Z,99.90
2022-08-01T07:55:04.483Z,99.90
2022-08-01T07:57:31.705Z,99.90
2022-08-01T07:59:59.171Z,99.90
2022-08-01T08:02:26.482Z,99.90
2022-08-01T08:04:53.876Z,99.90
2022-08-01T08:07:21.074Z,99.90
2022-08-01T08:09:51.155Z,99.90
2022-08-01T08:12:18.663Z,99.90
2022-08-01T08:14:55.726Z,99.90
2022-08-01T08:17:25.621Z,99.90
2022-08-01T08:19:52.894Z,99.90
2022-08-01T08:22:20.142Z,99.90
2022-08-01T08:24:47.342Z,99.90
2022-08-01T08:27:15.143Z,99.90
2022-08-01T08:29:42.490Z,99.90
2022-08-01T08:32:10.019Z,99.90
2022-08-01T08:34:37.416Z,99.90
2022-08-01T08:37:05.878Z,99.90
2022-08-01T08:39:41.955Z,99.90
2022-08-01T08:42:13.439Z,99.90
2022-08-01T08:44:43.375Z,99.90
2022-08-01T08:47:17.355Z,99.90
2022-08-01T08:49:50.205Z,99.90
2022-08-01T08:52:20.170Z,99.90
2022-08-01T08:54:48.612Z,99.90
2022-08-01T08:57:16.654Z,99.90
2022-08-01T08:59:48.064Z,99.90
2022-08-01T09:02:15.283Z,99.90
2022-08-01T09:04:42.624Z,99.90
2022-08-01T09:07:09.851Z,99.90
2022-08-01T09:09:40.890Z,99.90
2022-08-01T09:12:09.738Z,99.90
2022-08-01T09:14:46.125Z,99.90
2022-08-01T09:17:13.343Z,99.90
2022-08-01T09:19:41.961Z,99.90
2022-08-01T09:22:12.005Z,99.90
2022-08-01T09:24:40.982Z,99.90
2022-08-01T09:27:22.831Z,99.90
2022-08-01T09:30:00.611Z,99.90
2022-08-01T09:32:36.575Z,99.90
2022-08-01T09:35:24.251Z,99.90
2022-08-01T09:38:18.509Z,99.90
2022-08-01T09:41:00.016Z,99.90
2022-08-01T09:43:32.022Z,99.90
2022-08-01T09:46:05.695Z,99.90
2022-08-01T09:48:33.043Z,99.90
2022-08-01T09:51:04.241Z,99.90
2022-08-01T09:53:47.349Z,99.90
2022-08-01T09:56:20.589Z,99.90
2022-08-01T09:59:01.384Z,99.90
2022-08-01T10:01:43.446Z,99.90
2022-08-01T10:04:12.476Z,99.90
2022-08-01T10:06:47.330Z,99.90
2022-08-01T10:09:28.306Z,99.90
2022-08-01T10:12:15.985Z,99.90
2022-08-01T10:14:50.830Z,99.90
2022-08-01T10:17:20.230Z,99.90
2022-08-01T10:19:49.313Z,99.90
2022-08-01T10:22:17.376Z,99.90
2022-08-01T10:24:47.669Z,99.90
2022-08-01T10:27:17.098Z,99.90
2022-08-01T10:30:08.666Z,99.90
2022-08-01T10:32:50.482Z,99.90
2022-08-01T10:35:45.869Z,99.90
2022-08-01T10:38:13.439Z,99.90
2022-08-01T10:40:45.142Z,99.90
2022-08-01T10:43:13.419Z,99.90
2022-08-01T10:45:49.391Z,99.90
2022-08-01T10:48:21.746Z,99.90
2022-08-01T10:50:54.921Z,99.90
2022-08-01T10:53:31.707Z,99.90
2022-08-01T10:56:10.054Z,99.90
2022-08-01T10:58:44.374Z,99.90
2022-08-01T11:01:20.577Z,99.90
2022-08-01T11:04:07.389Z,99.90
2022-08-01T11:06:34.644Z,99.90
2022-08-01T11:09:16.276Z,99.90
2022-08-01T11:12:06.125Z,99.90
2022-08-01T11:14:55.228Z,99.90
2022-08-01T11:17:32.619Z,99.90
2022-08-01T11:20:09.358Z,99.90
2022-08-01T11:23:02.474Z,98.30
2022-08-01T11:26:05.619Z,99.20
2022-08-01T11:28:33.238Z,98.50
2022-08-01T11:31:11.025Z,98.80
2022-08-01T11:33:42.210Z,98.50
2022-08-01T11:36:12.751Z,99.20
2022-08-01T11:38:45.561Z,98.50
2022-08-01T11:41:37.283Z,98.80
2022-08-01T11:44:24.801Z,98.60
2022-08-01T11:47:09.833Z,96.30
2022-08-01T11:49:38.534Z,96.60
2022-08-01T11:52:07.653Z,97.20
2022-08-01T11:54:47.240Z,96.70
2022-08-01T11:57:33.992Z,97.20
2022-08-01T12:00:11.649Z,97.90
2022-08-01T12:02:43.055Z,97.80
2022-08-01T12:05:17.845Z,98.30
2022-08-01T12:07:45.801Z,99.20
2022-08-01T12:10:18.416Z,99.20
2022-08-01T12:12:50.989Z,98.90
2022-08-01T12:15:20.691Z,98.20
2022-08-01T12:17:58.403Z,98.00
2022-08-01T12:20:35.003Z,98.20
2022-08-01T12:23:04.562Z,97.80
2022-08-01T12:25:31.822Z,96.90
2022-08-01T12:28:04.403Z,97.30
2022-08-01T12:30:33.143Z,97.40
2022-08-01T12:33:00.308Z,97.00
2022-08-01T12:35:29.143Z,97.90
2022-08-01T12:38:02.385Z,97.50
2022-08-01T12:40:35.682Z,97.40
2022-08-01T12:43:06.792Z,96.50
2022-08-01T12:45:39.267Z,96.50
2022-08-01T12:48:12.600Z,96.50
2022-08-01T12:50:43.498Z,96.70
2022-08-01T12:53:16.953Z,96.20
2022-08-01T12:55:59.624Z,95.10
2022-08-01T12:58:35.530Z,95.20
2022-08-01T13:01:08.447Z,95.40
2022-08-01T13:03:36.708Z,94.80
2022-08-01T13:06:14.561Z,95.20
2022-08-01T13:08:41.872Z,95.20
2022-08-01T13:11:11.735Z,95.80
2022-08-01T13:13:41.449Z,94.90
2022-08-01T13:16:12.433Z,94.70
2022-08-01T13:18:52.757Z,94.60
2022-08-01T13:21:25.743Z,94.50
2022-08-01T13:24:03.500Z,94.20
2022-08-01T13:26:43.477Z,95.80
2022-08-01T13:29:13.278Z,96.50
2022-08-01T13:31:41.686Z,97.00
2022-08-01T13:34:09.237Z,98.80
2022-08-01T13:36:38.030Z,98.60
2022-08-01T13:39:06.212Z,97.30
2022-08-01T13:41:36.466Z,98.10
2022-08-01T13:44:03.741Z,97.70
2022-08-01T13:46:32.335Z,98.00
2022-08-01T13:49:05.197Z,97.50
2022-08-01T13:51:43.563Z,97.30
2022-08-01T13:54:10.855Z,97.30
2022-08-01T13:56:38.112Z,96.90
2022-08-01T13:59:05.317Z,97.10
2022-08-01T14:01:34.608Z,97.10
2022-08-01T14:04:03.317Z,97.10
2022-08-01T14:06:30.593Z,96.90
2022-08-01T14:08:57.902Z,96.70
2022-08-01T14:11:25.276Z,96.80
2022-08-01T14:13:57.913Z,96.90
2022-08-01T14:16:25.637Z,96.60
2022-08-01T14:18:52.957Z,96.40
2022-08-01T14:21:20.149Z,96.90
2022-08-01T14:23:47.390Z,96.90
2022-08-01T14:26:14.574Z,96.90
2022-08-01T14:28:41.844Z,96.70
2022-08-01T14:31:09.141Z,97.20
2022-08-01T14:33:36.469Z,96.90
2022-08-01T14:36:20.557Z,96.90
2022-08-01T14:38:51.557Z,96.10
2022-08-01T14:41:18.995Z,96.80
2022-08-01T14:43:46.337Z,96.60
2022-08-01T14:46:13.817Z,96.20
2022-08-01T14:48:41.483Z,96.30
2022-08-01T14:51:09.191Z,96.40
2022-08-01T14:53:36.468Z,96.90
2022-08-01T14:56:04.823Z,97.20
2022-08-01T14:58:32.206Z,97.40
2022-08-01T15:00:59.793Z,96.90
2022-08-01T15:03:27.350Z,97.40
2022-08-01T15:05:54.572Z,96.90
2022-08-01T15:08:21.881Z,96.50
2022-08-01T15:10:49.098Z,96.60
2022-08-01T15:13:16.316Z,96.10
2022-08-01T15:15:45.710Z,96.30
2022-08-01T15:18:12.938Z,96.70
2022-08-01T15:20:40.351Z,96.40
2022-08-01T15:23:07.989Z,97.10
2022-08-01T15:25:41.408Z,96.60
2022-08-01T15:28:11.098Z,96.40
2022-08-01T15:30:39.255Z,96.60
2022-08-01T15:33:06.903Z,96.70
2022-08-01T15:35:34.796Z,97.10
2022-08-01T15:38:02.400Z,96.80
2022-08-01T15:40:29.661Z,96.30
2022-08-01T15:42:56.898Z,96.30
2022-08-01T15:48:12.160Z,96.20
2022-08-01T15:50:39.502Z,94.70
2022-08-01T15:53:07.121Z,95.20
2022-08-01T15:55:39.055Z,95.90
2022-08-01T15:58:07.780Z,96.00
2022-08-01T16:00:38.742Z,95.50
2022-08-01T16:03:08.060Z,95.70
2022-08-01T16:05:38.275Z,95.40
2022-08-01T16:08:16.672Z,95.30
2022-08-01T16:10:44.199Z,96.10
2022-08-01T16:13:11.815Z,95.30
2022-08-01T16:15:39.654Z,95.70
2022-08-01T16:18:07.780Z,95.70
2022-08-01T16:20:37.420Z,95.70
2022-08-01T16:23:06.369Z,94.80
2022-08-01T16:25:34.086Z,94.70
2022-08-01T16:28:01.549Z,94.00
2022-08-01T16:30:32.015Z,94.20
2022-08-01T16:33:01.348Z,94.30
2022-08-01T16:35:36.277Z,93.70
2022-08-01T16:38:07.396Z,94.20
2022-08-01T16:40:47.366Z,94.00
2022-08-01T16:43:15.809Z,93.90
2022-08-01T16:45:43.368Z,93.90
2022-08-01T16:48:14.892Z,93.70
2022-08-01T16:50:42.963Z,94.10
2022-08-01T16:53:10.685Z,94.30
2022-08-01T16:55:42.665Z,93.60
2022-08-01T16:58:27.779Z,94.50
2022-08-01T17:01:56.214Z,94.30
2022-08-01T17:03:53.724Z,94.20
2022-08-01T17:06:22.342Z,94.00
2022-08-01T17:08:50.371Z,93.80
2022-08-01T17:11:17.565Z,93.90
2022-08-01T17:13:44.760Z,94.60
2022-08-01T17:16:12.279Z,94.40
2022-08-01T17:18:39.776Z,93.90
2022-08-01T17:21:07.038Z,94.50
2022-08-01T17:23:34.633Z,93.30
2022-08-01T17:26:01.891Z,94.00
2022-08-01T17:28:29.087Z,93.20
2022-08-01T17:30:56.446Z,93.60
2022-08-01T17:33:23.721Z,93.30
2022-08-01T17:36:11.056Z,93.00
2022-08-01T17:38:38.341Z,93.40
2022-08-01T17:41:05.531Z,93.30
2022-08-01T17:43:32.721Z,93.10
2022-08-01T17:46:00.017Z,92.40
2022-08-01T17:48:27.253Z,93.20
2022-08-01T17:50:54.526Z,93.60
2022-08-01T17:53:21.716Z,93.50
2022-08-01T17:55:54.404Z,93.50
2022-08-01T17:58:51.217Z,93.40
2022-08-01T18:01:17.004Z,93.70
2022-08-01T18:03:45.377Z,94.20
2022-08-01T18:06:14.310Z,94.60
2022-08-01T18:08:46.306Z,94.10
2022-08-01T18:11:15.090Z,94.40
2022-08-01T18:13:42.560Z,94.30
2022-08-01T18:16:10.616Z,93.80
2022-08-01T18:18:37.837Z,93.70
2022-08-01T18:21:06.036Z,93.30
2022-08-01T18:23:34.358Z,93.50
2022-08-01T18:26:01.890Z,93.90
2022-08-01T18:28:35.180Z,93.50
2022-08-01T19:47:58.068Z,98.60
2022-08-01T19:50:26.554Z,98.60
2022-08-01T19:52:56.329Z,98.70
2022-08-01T19:55:24.655Z,99.10
2022-08-01T20:00:41.327Z,99.00
2022-08-01T20:03:09.767Z,99.30
2022-08-01T20:05:37.475Z,99.30
2022-08-01T20:08:07.010Z,99.40
2022-08-01T20:10:34.568Z,99.60
2022-08-01T20:13:03.021Z,99.50
2022-08-01T20:15:30.908Z,99.60
2022-08-01T20:17:58.614Z,99.70
2022-08-01T20:20:26.643Z,99.80
2022-08-01T20:22:56.615Z,99.90
2022-08-01T20:25:32.116Z,99.90
2022-08-01T20:28:09.985Z,99.90
2022-08-01T20:30:38.370Z,99.90
2022-08-01T21:03:28.094Z,99.90
2022-08-01T21:06:00.654Z,99.90
2022-08-01T21:08:38.154Z,99.90
2022-08-01T21:11:06.596Z,99.90
2022-08-01T21:13:40.541Z,99.90
2022-08-01T21:16:23.999Z,99.90
2022-08-01T21:19:24.111Z,99.90
2022-08-01T21:22:16.415Z,99.90
2022-08-01T21:24:57.921Z,99.90
2022-08-01T21:27:33.298Z,99.90
2022-08-01T21:30:07.195Z,99.90
2022-08-01T21:32:36.076Z,99.90
2022-08-01T21:35:05.274Z,99.90
2022-08-01T21:37:33.310Z,99.90
2022-08-01T21:40:09.658Z,99.90
2022-08-01T21:42:39.198Z,99.90
2022-08-01T21:45:07.281Z,99.90
2022-08-01T21:47:35.686Z,99.90
2022-08-01T21:50:04.013Z,99.90
2022-08-01T21:52:55.384Z,99.90
2022-08-01T21:55:35.641Z,99.90
2022-08-01T21:58:30.738Z,99.90
2022-08-01T22:01:07.299Z,99.90
2022-08-01T22:03:55.894Z,99.90
2022-08-01T22:06:24.617Z,99.90
2022-08-01T22:08:56.171Z,99.90
2022-08-01T22:11:27.933Z,99.90
2022-08-01T22:13:59.647Z,99.90
2022-08-01T22:16:30.230Z,99.90
2022-08-01T22:18:57.721Z,99.90
2022-08-01T22:21:27.450Z,99.90
2022-08-01T22:23:54.753Z,99.90
2022-08-01T22:26:28.586Z,99.90
2022-08-01T22:28:56.347Z,99.90
2022-08-01T22:31:24.119Z,99.90
2022-08-01T22:33:51.802Z,99.90
2022-08-01T22:36:20.299Z,99.90
2022-08-01T22:38:47.724Z,99.90
2022-08-01T22:41:25.652Z,99.90
2022-08-01T22:43:59.493Z,99.90
2022-08-01T22:46:55.938Z,99.90
2022-08-01T22:49:44.180Z,99.90
2022-08-01T22:52:17.728Z,99.90
2022-08-01T22:54:50.612Z,99.90
2022-08-01T22:57:30.111Z,99.90
2022-08-01T23:00:08.229Z,99.90
2022-08-01T23:02:46.653Z,99.90
2022-08-01T23:05:40.989Z,99.90
2022-08-01T23:08:15.901Z,99.90
2022-08-01T23:10:43.297Z,99.90
2022-08-01T23:13:11.955Z,99.90
2022-08-01T23:15:42.870Z,99.90
2022-08-01T23:18:20.973Z,99.90
2022-08-01T23:20:49.925Z,99.90
2022-08-01T23:23:17.874Z,99.90
2022-08-01T23:26:03.975Z,99.90
2022-08-01T23:28:32.636Z,99.90
2022-08-01T23:31:01.105Z,99.90
2022-08-01T23:33:28.323Z,99.90
2022-08-01T23:35:55.747Z,99.90
2022-08-01T23:38:23.135Z,99.90
2022-08-01T23:40:50.399Z,99.90
2022-08-01T23:43:18.118Z,99.90
2022-08-01T23:46:03.791Z,99.90
2022-08-01T23:48:34.004Z,99.90
2022-08-01T23:51:02.071Z,99.90
2022-08-01T23:53:30.985Z,99.90
2022-08-01T23:56:02.541Z,99.90
2022-08-01T23:58:30.408Z,99.90
